Florence Regional Airport
KFLO : rendu visible

Aérodrome :











RETROUVEZ-NOUS SUR...

 
LOGIN :

S'inscrire | Disclaimer

   EN    FR    IT 

 









Légende :    VFR   VFR Marginal   IFR   IFR Intensif   IFR Très Intensif
Visi : 
Plafond : 
>= 8 km
>= 3000ft
5 à 8 km
1000 à 3000 ft
1500m à 5 km
500 à 1000 ft
800 à 1500m
200 à 500 ft
< 800m
< 200 ft
Symboles :   Orages  Brouillard  Fortes neiges  Fortes précipitations  Vent > 20 kt






- Altitude de l'aérodrome : 146 ft
- Code IATA : FLO


KFLO - Florence Regional

DERNIER METAR :
  • 060934Z AUTO 12003KT 1/2SM FG VV002 23/23 A3004 RMK AO2 T02330233

METARs EXPIRÉS :
  • 060918Z AUTO 11003KT 1 3/4SM BR OVC002 24/23 A3004 RMK AO2 T02390233
  • 060902Z AUTO 10004KT 8SM BKN002 BKN009 24/23 A3004 RMK AO2 T02390228
  • 060849Z AUTO 09003KT 7SM FEW002 SCT009 24/23 A3003 RMK AO2
  • 060753Z AUTO 00000KT 6SM BR CLR 24/23 A3003 RMK AO2 SLP167 T02390233
  • 060653Z AUTO 11003KT 10SM CLR 24/23 A3004 RMK AO2 SLP168 T02440233

TAF KFLO
Valide du 06 à 08h jusqu'au 07 à 06h UTC


060822Z 0608/0706 00000KT 6SM BR SCT025
TEMPO 0608/0610 BKN025
FM061000 00000KT 5SM BR BKN015
FM061200 19005KT P6SM FEW020
FM061800 18006KT P6SM SCT035
PROB30 0618/0622 P6SM TS BKN035CB
FM062200 17007KT P6SM BKN150
FIR KZJX / Amérique du Nord



MET'MAP, la Météo Aéronautique d'un coup d'oeil ! - Copyright ORBIFLY Décembre 2007 - Disclaimer

ORBIFLY MET'MAP TEAM :

Programmation & Développement : Alexandra Zaïnal
Sur une idée originale de : Baudouin d'Aumeries
Assistance à la programmation : Marc-Olivier Méhu
Soutien technique & logistique : Manuel Goepfert

Contact : metmap@orbifly.com




SOURCES & CREDITS :

   NOAA       Earth
Advisory